Time;durP1;ratioP1;P1;durP2;ratioP2;P2;SDS_P1;SDS_P2;PMS_P1;PMS_P2;Temp;Humidity;BMP_temperature;BMP_pressure;BME280_temperature;BME280_humidity;BME280_pressure;Samples;Min_cycle;Max_cycle;Signal;HPM_P1;HPM_P2
2021/03/30 00:01:06;;;;;;;8.43;3.97;;;;;;;7.27;62.26;100885.69;4992470;28;20118;-62
2021/03/30 00:03:32;;;;;;;11.43;3.65;;;;;;;7.62;59.86;100889.50;4993940;28;20037;-62
2021/03/30 00:05:57;;;;;;;10.32;4.32;;;;;;;7.57;59.73;100886.56;4993491;28;20046;-62
2021/03/30 00:08:23;;;;;;;9.57;3.92;;;;;;;7.71;61.21;100882.25;4993712;28;20334;-62
2021/03/30 00:10:48;;;;;;;6.15;3.38;;;;;;;7.67;59.30;100886.31;4993710;28;20042;-62
2021/03/30 00:13:14;;;;;;;10.75;3.42;;;;;;;7.67;60.83;100886.31;4993872;28;20053;-62
2021/03/30 00:15:39;;;;;;;8.90;3.55;;;;;;;7.59;59.53;100895.22;4993631;28;20050;-62
2021/03/30 00:18:05;;;;;;;6.70;3.40;;;;;;;7.51;59.43;100890.78;4992553;28;20118;-62
2021/03/30 00:20:30;;;;;;;9.15;3.40;;;;;;;7.38;60.39;100890.56;4999769;28;20057;-63
2021/03/30 00:22:56;;;;;;;9.82;3.38;;;;;;;7.25;60.08;100899.19;5012074;28;20030;-62
2021/03/30 00:25:21;;;;;;;6.75;3.63;;;;;;;7.40;60.13;100898.41;5013048;28;20096;-62
2021/03/30 00:27:46;;;;;;;9.05;3.90;;;;;;;7.45;59.62;100891.50;5013374;28;20033;-62
2021/03/30 00:30:12;;;;;;;9.30;3.70;;;;;;;7.58;58.91;100896.22;4995250;28;20021;-63
2021/03/30 00:32:38;;;;;;;7.70;3.67;;;;;;;7.51;59.15;100893.47;5013144;28;20041;-62
2021/03/30 00:35:05;;;;;;;8.13;3.55;;;;;;;7.35;59.98;100891.75;5012717;28;20125;-62
2021/03/30 00:37:30;;;;;;;8.73;3.60;;;;;;;7.37;59.40;100894.25;5013113;28;20068;-62
2021/03/30 00:39:55;;;;;;;8.30;3.28;;;;;;;7.37;59.49;100894.25;5011895;28;20026;-62
2021/03/30 00:42:21;;;;;;;6.35;3.28;;;;;;;7.31;59.76;100893.16;5012715;28;20034;-62
2021/03/30 00:44:47;;;;;;;7.28;3.10;;;;;;;7.13;60.19;100898.78;5012861;28;20029;-62
2021/03/30 00:47:14;;;;;;;6.90;3.22;;;;;;;6.79;62.15;100890.38;5012726;28;20042;-62
2021/03/30 00:49:40;;;;;;;7.32;3.33;;;;;;;6.62;66.69;100895.81;5011719;28;20025;-62
2021/03/30 00:52:05;;;;;;;6.30;3.30;;;;;;;6.45;63.07;100888.91;5011240;28;20388;-63
2021/03/30 00:54:30;;;;;;;6.72;3.20;;;;;;;6.45;63.41;100891.59;5011932;28;20053;-62
2021/03/30 00:56:56;;;;;;;6.78;3.42;;;;;;;6.70;62.60;100893.09;5011693;28;20084;-62
2021/03/30 00:59:21;;;;;;;6.97;3.20;;;;;;;6.76;62.18;100885.41;5013054;28;20022;-62
2021/03/30 01:01:47;;;;;;;8.48;3.28;;;;;;;6.50;62.63;100891.88;4995025;28;20437;-62
2021/03/30 01:04:13;;;;;;;8.25;3.30;;;;;;;6.43;63.14;100885.59;5012743;28;20026;-62
2021/03/30 01:06:38;;;;;;;5.70;3.38;;;;;;;6.26;63.64;100890.16;5011139;28;20117;-62
2021/03/30 01:09:40;;;;;;;7.15;3.15;;;;;;;6.01;64.52;100887.59;5014326;28;20041;-62
2021/03/30 01:12:30;;;;;;;6.85;3.38;;;;;;;5.94;65.07;100891.13;5015374;28;20034;-62
2021/03/30 01:15:15;;;;;;;8.65;3.85;;;;;;;6.12;64.25;100886.41;5016894;28;20022;-62
2021/03/30 01:18:03;;;;;;;7.00;3.40;;;;;;;6.09;64.65;100886.78;4999725;28;20074;-62
2021/03/30 01:21:16;;;;;;;7.70;3.45;;;;;;;5.86;65.32;100877.81;5016143;28;20049;-63
2021/03/30 01:24:05;;;;;;;8.57;3.50;;;;;;;5.97;64.78;100886.31;4998190;28;20030;-62
2021/03/30 01:26:39;;;;;;;7.95;3.60;;;;;;;6.10;66.51;100885.75;5014824;28;20034;-62
2021/03/30 01:29:17;;;;;;;7.60;3.33;;;;;;;6.22;66.29;100884.38;5015179;28;20444;-62
2021/03/30 01:31:45;;;;;;;9.45;3.38;;;;;;;6.36;64.49;100879.31;4999355;28;20084;-62
2021/03/30 01:34:11;;;;;;;7.55;3.22;;;;;;;6.23;63.94;100880.69;5015003;28;20068;-62
2021/03/30 01:36:38;;;;;;;5.72;3.42;;;;;;;5.91;64.53;100875.47;4997902;28;20042;-62
2021/03/30 01:39:05;;;;;;;8.27;3.42;;;;;;;5.77;64.91;100879.69;4998844;28;20095;-62
2021/03/30 01:41:32;;;;;;;10.60;3.47;;;;;;;5.71;64.90;100885.69;4998476;28;20038;-62
2021/03/30 01:43:57;;;;;;;7.75;3.47;;;;;;;5.54;66.96;100890.19;4998444;28;20384;-62
2021/03/30 01:46:22;;;;;;;7.20;3.47;;;;;;;5.57;65.49;100884.56;4998115;28;20037;-62
2021/03/30 01:48:48;;;;;;;7.13;3.15;;;;;;;5.54;66.46;100875.09;5014753;28;20048;-62
2021/03/30 01:51:14;;;;;;;8.38;3.38;;;;;;;5.54;65.58;100876.91;5014398;28;20129;-62
2021/03/30 01:53:41;;;;;;;6.93;3.42;;;;;;;5.46;66.24;100868.94;5016011;28;20457;-62
2021/03/30 01:56:07;;;;;;;6.97;3.55;;;;;;;5.28;66.81;100869.97;4998054;28;20038;-61
2021/03/30 01:58:32;;;;;;;8.13;3.58;;;;;;;5.33;67.08;100875.59;5014701;28;20033;-62
2021/03/30 02:00:58;;;;;;;6.32;3.33;;;;;;;5.18;66.99;100878.09;5014252;28;20042;-62
2021/03/30 02:03:23;;;;;;;10.73;3.80;;;;;;;5.31;66.80;100874.94;5014641;28;20036;-62
2021/03/30 02:05:49;;;;;;;9.30;3.95;;;;;;;5.84;65.11;100876.19;4997716;28;20049;-62
2021/03/30 02:08:14;;;;;;;8.02;3.80;;;;;;;5.61;65.93;100881.38;5015860;28;20034;-62
2021/03/30 02:10:48;;;;;;;9.93;3.90;;;;;;;5.39;66.49;100877.59;4997630;28;20401;-62
2021/03/30 02:13:22;;;;;;;8.82;3.53;;;;;;;4.92;67.99;100880.94;5015633;28;20042;-62
2021/03/30 02:15:47;;;;;;;5.22;3.67;;;;;;;4.67;68.53;100879.25;5015500;28;20358;-62
2021/03/30 02:18:14;;;;;;;10.55;3.80;;;;;;;4.61;69.89;100872.75;5015699;28;20499;-62
2021/03/30 02:20:55;;;;;;;8.23;4.13;;;;;;;4.57;71.25;100881.19;5013505;28;20042;-62
2021/03/30 02:23:22;;;;;;;;;;;;;;;4.58;69.89;100877.56;4999841;28;20030;-62
2021/03/30 02:25:47;;;;;;;8.18;3.90;;;;;;;4.54;70.28;100874.38;5013656;28;20360;-62
2021/03/30 02:28:15;;;;;;;6.18;3.70;;;;;;;5.75;65.16;100879.84;5014333;28;20057;-61
2021/03/30 02:30:40;;;;;;;9.32;3.35;;;;;;;5.37;66.30;100870.78;5015064;28;20045;-61
2021/03/30 02:33:06;;;;;;;8.13;3.35;;;;;;;5.18;67.23;100867.47;5015198;28;20033;-62
2021/03/30 02:35:32;;;;;;;8.05;4.00;;;;;;;4.99;67.41;100870.47;4981246;28;20489;-62
2021/03/30 02:37:57;;;;;;;9.48;4.30;;;;;;;4.72;68.50;100872.44;5013864;28;20033;-63
2021/03/30 02:40:23;;;;;;;9.90;3.92;;;;;;;4.87;69.54;100877.94;5013738;28;20057;-62
2021/03/30 02:42:48;;;;;;;9.13;3.28;;;;;;;5.26;67.95;100882.59;5015132;28;20021;-62
2021/03/30 02:45:15;;;;;;;6.55;3.50;;;;;;;5.13;67.57;100875.13;5013443;28;20061;-62
2021/03/30 02:47:41;;;;;;;8.90;3.58;;;;;;;5.15;67.68;100875.78;5013825;28;20040;-62
2021/03/30 02:50:07;;;;;;;8.48;3.63;;;;;;;4.96;67.83;100876.94;5013371;28;20033;-62
2021/03/30 02:52:33;;;;;;;6.03;3.47;;;;;;;4.78;68.60;100878.09;5014788;28;20036;-62
2021/03/30 02:54:58;;;;;;;7.05;3.35;;;;;;;4.68;69.04;100872.94;4997496;28;20400;-62
2021/03/30 02:57:24;;;;;;;6.13;3.30;;;;;;;4.62;69.82;100879.75;5014700;28;20144;-65
2021/03/30 02:59:52;;;;;;;9.60;3.65;;;;;;;4.80;68.66;100876.94;5014841;28;20026;-62
2021/03/30 03:02:17;;;;;;;9.10;4.00;;;;;;;4.93;68.29;100871.97;5013154;28;20041;-62
2021/03/30 03:04:47;;;;;;;7.25;4.25;;;;;;;4.72;68.43;100877.75;5013352;28;20037;-62
2021/03/30 03:07:12;;;;;;;6.50;3.80;;;;;;;4.73;69.51;100881.25;5014222;28;20042;-62
2021/03/30 03:09:37;;;;;;;9.43;5.00;;;;;;;4.65;68.62;100881.25;5014395;28;20135;-62
2021/03/30 03:12:03;;;;;;;11.85;5.72;;;;;;;4.45;69.56;100878.88;5012958;28;20045;-60
2021/03/30 03:14:29;;;;;;;8.45;4.80;;;;;;;4.53;71.67;100884.19;5013337;28;20018;-60
2021/03/30 03:16:54;;;;;;;11.75;5.93;;;;;;;4.38;70.01;100877.84;5014074;28;20030;-60
2021/03/30 03:19:20;;;;;;;11.27;5.70;;;;;;;4.24;70.58;100881.13;5013186;28;20529;-61
2021/03/30 03:21:45;;;;;;;6.50;3.83;;;;;;;4.75;68.76;100880.09;4996319;28;20045;-61
2021/03/30 03:24:11;;;;;;;6.90;3.50;;;;;;;4.84;68.13;100883.59;5013047;28;20037;-61
2021/03/30 03:26:40;;;;;;;7.97;3.55;;;;;;;4.84;68.07;100894.22;5012671;28;20084;-61
2021/03/30 03:29:16;;;;;;;6.40;3.35;;;;;;;4.89;69.02;100886.59;5014494;28;20025;-62
2021/03/30 03:31:42;;;;;;;8.27;3.45;;;;;;;4.93;67.81;100887.06;5011970;28;20038;-61
2021/03/30 03:34:08;;;;;;;7.50;3.65;;;;;;;4.97;67.80;100883.09;5012725;28;20104;-61
2021/03/30 03:36:40;;;;;;;10.07;3.72;;;;;;;4.97;67.43;100883.94;5013452;28;20103;-61
2021/03/30 03:39:07;;;;;;;7.75;3.42;;;;;;;4.98;67.27;100884.75;5013519;28;20037;-61
2021/03/30 03:41:32;;;;;;;5.68;3.25;;;;;;;4.97;67.24;100886.59;5013647;28;20045;-61
2021/03/30 03:43:58;;;;;;;11.88;3.60;;;;;;;4.80;66.82;100882.25;5013947;28;20037;-61
2021/03/30 03:46:23;;;;;;;6.90;3.40;;;;;;;4.61;68.30;100879.88;5013675;28;20077;-61
2021/03/30 03:48:49;;;;;;;8.90;5.53;;;;;;;4.32;68.55;100875.84;5013869;28;20026;-61
2021/03/30 03:51:14;;;;;;;12.77;7.07;;;;;;;4.05;69.62;100885.69;5013388;28;20068;-61
2021/03/30 03:53:39;;;;;;;12.30;6.25;;;;;;;3.73;70.48;100882.88;4996527;28;20030;-61
2021/03/30 03:56:05;;;;;;;12.50;6.30;;;;;;;3.51;72.19;100874.47;5012161;28;20038;-61
2021/03/30 03:58:44;;;;;;;11.27;6.03;;;;;;;3.44;72.66;100870.78;5012703;28;20018;-61
2021/03/30 04:01:10;;;;;;;12.70;6.63;;;;;;;3.36;73.07;100876.84;5012234;28;20117;-61
2021/03/30 04:03:52;;;;;;;10.68;5.90;;;;;;;3.38;73.72;100882.00;4996106;28;20030;-61
2021/03/30 04:06:21;;;;;;;8.95;5.93;;;;;;;3.41;74.22;100885.16;5012087;28;20038;-61
2021/03/30 04:08:48;;;;;;;12.07;6.28;;;;;;;3.43;73.41;100885.03;4996166;28;20050;-61
2021/03/30 04:11:14;;;;;;;14.48;5.90;;;;;;;3.53;73.27;100883.09;5013352;28;20060;-61
2021/03/30 04:13:39;;;;;;;10.38;6.15;;;;;;;3.54;75.42;100883.91;5012261;28;20133;-61
2021/03/30 04:16:05;;;;;;;12.15;5.25;;;;;;;3.62;72.84;100886.63;4995340;28;20451;-61
2021/03/30 04:18:31;;;;;;;12.23;5.80;;;;;;;3.71;75.93;100890.16;5013575;28;20065;-61
2021/03/30 04:20:56;;;;;;;8.80;5.30;;;;;;;3.78;72.38;100891.19;5011658;28;20504;-61
2021/03/30 04:23:25;;;;;;;9.52;4.47;;;;;;;3.75;73.42;100888.88;4995769;28;20036;-61
2021/03/30 04:25:50;;;;;;;10.38;4.60;;;;;;;3.67;72.13;100895.78;5012847;28;20485;-61
2021/03/30 04:28:16;;;;;;;8.90;5.00;;;;;;;3.35;72.68;100890.28;5012001;28;20119;-61
2021/03/30 04:30:42;;;;;;;9.52;5.47;;;;;;;3.14;73.22;100887.94;5012935;28;20053;-61
2021/03/30 04:33:07;;;;;;;8.13;4.88;;;;;;;2.91;74.58;100887.59;5013063;28;20089;-61
2021/03/30 04:35:32;;;;;;;10.52;5.53;;;;;;;2.96;79.39;100888.78;5011492;28;20057;-61
2021/03/30 04:37:58;;;;;;;10.40;5.65;;;;;;;3.06;77.14;100885.25;5011955;28;20036;-61
2021/03/30 04:40:24;;;;;;;10.48;5.32;;;;;;;3.17;76.50;100891.13;5012813;28;20041;-61
2021/03/30 04:42:49;;;;;;;8.82;5.70;;;;;;;3.11;74.70;100893.56;5012393;28;20033;-61
2021/03/30 04:45:15;;;;;;;9.88;5.10;;;;;;;2.97;74.75;100902.84;5012207;28;20403;-60
2021/03/30 04:47:40;;;;;;;10.05;4.60;;;;;;;2.98;75.90;100905.38;5013333;28;20030;-61
2021/03/30 04:50:07;;;;;;;8.07;4.55;;;;;;;2.89;74.33;100900.16;5012637;28;20033;-60
2021/03/30 04:52:32;;;;;;;9.25;4.85;;;;;;;2.57;75.73;100906.78;5011673;28;20030;-61
2021/03/30 04:54:58;;;;;;;10.02;5.90;;;;;;;2.57;77.04;100906.78;5013026;28;20484;-60
2021/03/30 04:57:23;;;;;;;10.77;4.22;;;;;;;2.68;76.16;100903.94;5012559;28;20042;-61
2021/03/30 04:59:48;;;;;;;7.72;3.80;;;;;;;2.79;75.44;100901.03;5013078;28;20444;-63
2021/03/30 05:02:14;;;;;;;8.32;4.30;;;;;;;2.85;75.38;100898.81;5012794;28;20535;-63
2021/03/30 05:04:39;;;;;;;11.77;4.88;;;;;;;2.68;75.29;100905.75;5013584;28;20029;-62
2021/03/30 05:07:06;;;;;;;8.18;3.72;;;;;;;2.57;75.80;100898.84;5012770;28;20042;-62
2021/03/30 05:09:31;;;;;;;13.15;4.55;;;;;;;2.64;76.24;100910.50;5013176;28;20049;-62
2021/03/30 05:11:56;;;;;;;8.45;5.60;;;;;;;2.77;76.95;100903.03;5012673;28;20042;-62
2021/03/30 05:14:22;;;;;;;10.23;5.10;;;;;;;2.76;76.37;100911.94;5011972;28;20393;-62
2021/03/30 05:16:48;;;;;;;7.43;4.63;;;;;;;2.87;75.74;100918.00;5013008;28;20125;-62
2021/03/30 05:19:13;;;;;;;7.90;4.80;;;;;;;2.80;75.24;100912.50;5013069;28;20038;-62
2021/03/30 05:21:38;;;;;;;8.80;4.63;;;;;;;2.66;75.29;100916.47;5012532;28;20042;-62
2021/03/30 05:24:04;;;;;;;9.50;4.13;;;;;;;2.55;75.48;100920.19;5012796;28;20033;-62
2021/03/30 05:26:30;;;;;;;8.63;4.10;;;;;;;2.63;75.73;100926.53;5012282;28;20042;-62
2021/03/30 05:28:55;;;;;;;7.75;3.67;;;;;;;2.78;74.95;100925.88;5011642;28;20030;-62
2021/03/30 05:31:21;;;;;;;5.20;3.70;;;;;;;2.60;74.91;100930.31;5012126;28;20034;-62
2021/03/30 05:33:46;;;;;;;9.35;4.07;;;;;;;2.69;75.29;100925.94;5012922;28;20033;-62
2021/03/30 05:36:11;;;;;;;6.25;4.57;;;;;;;2.85;75.40;100926.13;5012291;28;20033;-62
2021/03/30 05:38:37;;;;;;;6.78;4.53;;;;;;;3.07;74.59;100932.78;5011661;28;20026;-62
2021/03/30 05:41:03;;;;;;;9.48;4.82;;;;;;;3.45;73.43;100921.00;5012532;28;20456;-62
2021/03/30 05:43:28;;;;;;;11.85;4.38;;;;;;;3.78;72.04;100923.03;5011336;28;20427;-62
2021/03/30 05:45:54;;;;;;;8.85;4.03;;;;;;;4.31;70.23;100924.59;5011044;28;20034;-62
2021/03/30 05:48:19;;;;;;;9.93;4.68;;;;;;;6.25;62.59;100921.28;5011991;28;20033;-62
2021/03/30 05:50:45;;;;;;;7.78;4.05;;;;;;;7.76;55.48;100931.41;5012219;28;20060;-62
2021/03/30 05:53:11;;;;;;;15.93;4.65;;;;;;;9.42;49.37;100935.22;5012579;28;20022;-62
2021/03/30 05:55:43;;;;;;;6.70;4.13;;;;;;;11.39;43.87;100940.03;5014665;28;20053;-62
2021/03/30 05:58:09;;;;;;;6.97;3.83;;;;;;;11.64;43.30;100942.91;5016190;28;20465;-62
2021/03/30 06:00:45;;;;;;;10.68;4.25;;;;;;;12.69;39.96;100940.19;5015900;28;20045;-62
2021/03/30 06:03:15;;;;;;;8.27;4.20;;;;;;;12.92;39.69;100947.72;5015958;28;20472;-62
2021/03/30 06:05:41;;;;;;;6.78;3.97;;;;;;;12.56;39.30;100950.19;5015856;28;20070;-63
2021/03/30 06:08:06;;;;;;;7.40;3.58;;;;;;;13.05;39.41;100957.56;5015296;28;20117;-63
2021/03/30 06:10:32;;;;;;;9.60;4.00;;;;;;;13.55;38.19;100957.69;5015269;28;20412;-62
2021/03/30 06:12:59;;;;;;;11.30;4.40;;;;;;;15.21;34.32;100963.03;5014917;28;20487;-62
2021/03/30 06:15:28;;;;;;;7.35;4.35;;;;;;;15.53;33.68;100965.47;5015910;28;20030;-62
2021/03/30 06:17:54;;;;;;;11.23;4.47;;;;;;;15.29;33.59;100962.69;5014661;28;20045;-62
2021/03/30 06:20:31;;;;;;;6.90;3.88;;;;;;;14.03;36.19;100962.41;5015193;28;20128;-62
2021/03/30 06:22:59;;;;;;;9.75;4.38;;;;;;;15.29;34.34;100965.41;5015664;28;20026;-62
2021/03/30 06:25:38;;;;;;;7.55;4.10;;;;;;;16.47;32.08;100973.53;5015450;28;20030;-62
2021/03/30 06:28:18;;;;;;;7.10;4.30;;;;;;;15.78;33.19;100967.16;5015896;28;20061;-62
2021/03/30 06:30:56;;;;;;;;;;;;;;;14.85;34.89;100961.25;5015757;28;20038;-62
2021/03/30 06:33:21;;;;;;;6.20;3.63;;;;;;;15.83;33.38;100965.41;5015585;28;19914;-62
2021/03/30 06:35:47;;;;;;;7.43;3.85;;;;;;;15.31;34.34;100967.88;5015387;28;20026;-62
2021/03/30 06:38:12;;;;;;;7.10;4.20;;;;;;;15.69;33.91;100970.19;4998179;28;20072;-62
2021/03/30 06:40:40;;;;;;;8.18;4.82;;;;;;;14.92;35.50;100970.09;5015182;28;20096;-62
2021/03/30 06:46:07;;;;;;;10.35;6.53;;;;;;;13.71;37.42;100974.34;5013940;28;20049;-62
2021/03/30 06:48:33;;;;;;;12.00;6.65;;;;;;;15.38;34.22;100979.41;4997775;28;20038;-62
2021/03/30 06:51:16;;;;;;;15.00;6.97;;;;;;;13.98;37.05;100975.75;5013623;28;20045;-62
2021/03/30 06:53:41;;;;;;;10.85;5.95;;;;;;;16.10;33.00;100987.38;5014242;28;20062;-62
2021/03/30 06:56:06;;;;;;;13.45;6.93;;;;;;;15.42;34.26;100977.06;5014542;28;20045;-62
2021/03/30 06:58:53;;;;;;;14.32;9.30;;;;;;;15.18;35.22;100979.72;5015059;28;20026;-62
2021/03/30 07:01:18;;;;;;;10.45;5.72;;;;;;;16.00;33.92;100980.91;5013508;28;20092;-62
2021/03/30 07:03:44;;;;;;;8.63;4.97;;;;;;;16.12;33.45;100977.13;4997586;28;20030;-62
2021/03/30 07:06:11;;;;;;;13.93;4.97;;;;;;;15.63;34.18;100976.53;5012334;28;20061;-62
2021/03/30 07:08:36;;;;;;;15.65;6.70;;;;;;;15.04;35.73;100979.06;5013577;28;20428;-62
2021/03/30 07:11:02;;;;;;;19.92;8.27;;;;;;;14.91;36.33;100979.25;4997113;28;20088;-62
2021/03/30 07:13:27;;;;;;;14.68;9.02;;;;;;;15.13;36.12;100976.88;5013908;28;20092;-64
2021/03/30 07:16:20;;;;;;;16.17;7.50;;;;;;;15.26;36.30;100976.69;5014399;28;20058;-63
2021/03/30 07:18:47;;;;;;;16.83;10.07;;;;;;;15.73;35.80;100978.69;5012477;28;20037;-62
2021/03/30 07:21:33;;;;;;;14.18;6.70;;;;;;;15.67;35.76;100976.88;5012936;28;20042;-62
2021/03/30 07:24:06;;;;;;;16.08;6.18;;;;;;;15.21;36.75;100979.25;5013450;28;20038;-62
2021/03/30 07:26:52;;;;;;;28.73;11.80;;;;;;;15.14;37.26;100973.13;4997475;28;20038;-62
2021/03/30 07:29:23;;;;;;;22.02;9.10;;;;;;;15.03;36.93;100976.63;5014500;28;20480;-62
2021/03/30 07:32:03;;;;;;;18.70;7.25;;;;;;;14.99;37.43;100975.41;5013986;28;20049;-62
2021/03/30 07:35:07;;;;;;;;;;;;;;;15.08;37.37;100971.34;5015577;28;20084;-62
2021/03/30 07:37:44;;;;;;;12.93;5.45;;;;;;;15.12;37.06;100975.22;4991791;28;19980;-62
2021/03/30 07:40:10;;;;;;;19.15;8.35;;;;;;;15.55;36.75;100974.16;4992131;28;20096;-62
2021/03/30 07:42:38;;;;;;;15.95;7.03;;;;;;;15.53;36.97;100970.88;4978745;28;20443;-62
2021/03/30 07:45:04;;;;;;;16.88;6.35;;;;;;;15.19;37.77;100973.25;5012573;28;20119;-64
2021/03/30 07:47:29;;;;;;;16.05;5.50;;;;;;;15.78;35.98;100972.56;5014201;28;20053;-63
2021/03/30 07:49:55;;;;;;;12.38;6.57;;;;;;;16.12;35.52;100979.84;5014099;28;20111;-62
2021/03/30 07:52:31;;;;;;;19.27;9.40;;;;;;;15.96;35.87;100975.97;5013745;28;20555;-63
2021/03/30 07:55:19;;;;;;;18.92;8.65;;;;;;;15.30;37.81;100982.44;5014376;28;20026;-63
2021/03/30 07:58:21;;;;;;;20.73;8.35;;;;;;;15.29;39.21;100981.63;4996210;28;20046;-63
2021/03/30 08:00:48;;;;;;;17.45;9.27;;;;;;;16.38;36.79;100985.81;4981898;28;20128;-62
2021/03/30 08:03:19;;;;;;;13.68;4.65;;;;;;;16.11;37.78;100985.50;5014029;28;20026;-63
2021/03/30 08:05:44;;;;;;;12.05;5.80;;;;;;;15.68;38.04;100982.06;5005034;28;20133;-63
2021/03/30 08:08:23;;;;;;;7.28;4.65;;;;;;;15.98;37.84;100978.44;4992957;28;20030;-63
2021/03/30 08:10:51;;;;;;;9.07;4.00;;;;;;;16.31;36.31;100994.06;5008980;28;20042;-63
2021/03/30 08:13:35;;;;;;;15.75;5.05;;;;;;;15.91;37.29;100983.97;4994301;28;20532;-63
2021/03/30 08:16:09;;;;;;;8.05;4.00;;;;;;;16.18;35.73;100987.03;5008910;28;20039;-63
2021/03/30 08:18:42;;;;;;;8.98;4.10;;;;;;;16.00;36.52;100987.16;4994214;28;20403;-63
2021/03/30 08:21:11;;;;;;;9.38;4.13;;;;;;;15.78;36.97;100984.22;5019673;28;20034;-63
2021/03/30 08:23:52;;;;;;;11.45;3.85;;;;;;;16.07;37.15;100981.59;5013454;28;20022;-63
2021/03/30 08:26:30;;;;;;;12.07;3.95;;;;;;;16.84;35.64;100981.34;5013160;28;20126;-64
2021/03/30 08:28:59;;;;;;;9.15;4.40;;;;;;;16.29;36.20;100979.94;5013624;28;20014;-63
2021/03/30 08:31:28;;;;;;;8.18;4.10;;;;;;;16.55;36.78;100975.91;5013324;28;20112;-63
2021/03/30 08:33:57;;;;;;;6.50;3.60;;;;;;;16.10;37.11;100981.97;5013514;28;20032;-63
2021/03/30 08:36:27;;;;;;;8.60;3.58;;;;;;;16.06;37.01;100980.78;5011846;28;20443;-63
2021/03/30 08:39:06;;;;;;;7.72;4.15;;;;;;;17.23;35.14;100984.25;5013551;28;20018;-63
2021/03/30 08:41:41;;;;;;;8.77;4.50;;;;;;;17.46;34.84;100986.81;5012959;28;20034;-63
2021/03/30 08:44:11;;;;;;;9.30;3.90;;;;;;;17.76;34.48;100982.16;5013364;28;20045;-63
2021/03/30 08:46:37;;;;;;;;;;;;;;;17.74;34.21;100985.09;5013393;28;20454;-61
2021/03/30 08:49:02;;;;;;;10.18;3.97;;;;;;;17.24;34.61;100988.59;5013176;28;20355;-62
2021/03/30 08:51:27;;;;;;;9.80;4.18;;;;;;;17.42;34.67;100988.41;4995052;28;20030;-62
2021/03/30 08:53:53;;;;;;;14.25;5.90;;;;;;;17.61;35.28;100993.56;4995690;28;20042;-62
2021/03/30 08:56:28;;;;;;;19.20;14.13;;;;;;;17.52;35.12;100990.44;4995189;28;20053;-62
2021/03/30 08:58:53;;;;;;;20.27;12.90;;;;;;;17.64;35.22;100987.66;5013262;28;20034;-62
2021/03/30 09:01:22;;;;;;;16.65;11.60;;;;;;;17.87;34.53;100982.09;5011490;28;20111;-62
2021/03/30 09:03:51;;;;;;;14.95;4.95;;;;;;;17.50;35.39;100987.16;5013304;28;20076;-62
2021/03/30 09:06:33;;;;;;;14.77;5.38;;;;;;;18.21;35.08;100987.47;5011675;28;20428;-63
2021/03/30 09:08:58;;;;;;;12.15;4.10;;;;;;;17.71;35.53;100985.59;5013155;28;20041;-63
2021/03/30 09:11:26;;;;;;;15.05;4.57;;;;;;;18.62;34.09;100984.44;5012767;28;20037;-64
2021/03/30 09:14:08;;;;;;;9.88;4.45;;;;;;;19.09;32.40;100990.16;5013349;28;20022;-64
2021/03/30 09:16:34;;;;;;;16.52;4.45;;;;;;;19.11;33.22;100990.72;5011522;28;20046;-64
2021/03/30 09:19:11;;;;;;;10.80;4.50;;;;;;;18.84;33.21;100988.00;5013328;28;20044;-64
2021/03/30 09:21:37;;;;;;;13.90;4.72;;;;;;;19.79;31.62;100993.81;5012725;28;20132;-63
2021/03/30 09:24:07;;;;;;;12.45;4.40;;;;;;;18.98;32.75;100985.72;5012951;28;20041;-64
2021/03/30 09:26:37;;;;;;;12.65;4.68;;;;;;;19.46;32.92;100986.72;4994394;28;20069;-63
2021/03/30 09:29:02;;;;;;;14.65;4.80;;;;;;;19.77;32.17;100976.13;5011927;28;20044;-65
2021/03/30 09:31:28;;;;;;;11.70;5.15;;;;;;;20.37;31.28;100982.19;5016628;28;20524;-67
2021/03/30 09:33:56;;;;;;;13.27;5.32;;;;;;;20.20;32.50;100983.19;5015625;28;20033;-64
2021/03/30 09:36:21;;;;;;;11.93;5.28;;;;;;;19.92;32.97;100980.81;5015241;28;20396;-64
2021/03/30 09:38:48;;;;;;;16.15;5.68;;;;;;;20.85;30.50;100983.75;5016638;28;20018;-63
2021/03/30 09:41:14;;;;;;;27.80;6.43;;;;;;;20.34;31.64;100978.06;5015755;28;20038;-63
2021/03/30 09:43:39;;;;;;;19.20;5.57;;;;;;;20.55;31.68;100979.03;5016695;28;20026;-63
2021/03/30 09:46:05;;;;;;;22.35;5.40;;;;;;;21.31;30.92;100980.28;5015044;28;20050;-63
2021/03/30 09:48:30;;;;;;;26.20;6.15;;;;;;;20.86;32.11;100973.66;4999166;28;20029;-64
2021/03/30 09:50:56;;;;;;;24.25;6.30;;;;;;;20.57;32.53;100974.13;5015030;28;20095;-64
2021/03/30 09:53:21;;;;;;;28.33;6.65;;;;;;;20.72;32.34;100976.09;5015314;28;20029;-64
2021/03/30 09:55:47;;;;;;;29.67;6.32;;;;;;;20.85;32.56;100975.59;5015943;28;20508;-64
2021/03/30 09:58:16;;;;;;;21.75;6.78;;;;;;;20.08;33.80;100971.69;5015031;28;20108;-62
2021/03/30 10:00:49;;;;;;;31.77;6.53;;;;;;;19.64;34.55;100968.34;5015900;28;20401;-64
2021/03/30 10:03:15;;;;;;;37.88;7.68;;;;;;;19.85;34.58;100970.19;5015369;28;20056;-63
2021/03/30 10:05:41;;;;;;;30.50;7.15;;;;;;;20.43;33.78;100967.50;5015863;28;20501;-63
2021/03/30 10:08:19;;;;;;;34.22;6.70;;;;;;;21.36;33.41;100963.94;5016381;28;20526;-65
2021/03/30 10:10:49;;;;;;;30.88;7.22;;;;;;;21.09;33.09;100956.00;5015750;28;20053;-65
2021/03/30 10:13:31;;;;;;;40.10;6.55;;;;;;;22.01;32.37;100947.78;5015171;28;20030;-64
2021/03/30 10:16:00;;;;;;;36.92;6.63;;;;;;;22.56;30.81;100943.22;4999252;28;20038;-63
2021/03/30 10:18:27;;;;;;;44.53;7.72;;;;;;;22.26;31.76;100948.84;5014928;28;20030;-63
2021/03/30 10:20:58;;;;;;;45.03;6.90;;;;;;;22.26;31.76;100946.09;5015632;28;20373;-64
2021/03/30 10:23:28;;;;;;;29.38;7.03;;;;;;;22.79;30.41;100949.16;5016160;28;20029;-63
2021/03/30 10:25:54;;;;;;;24.10;7.28;;;;;;;23.06;30.64;100942.44;5014173;28;20129;-64
2021/03/30 10:28:30;;;;;;;35.42;7.43;;;;;;;22.55;31.75;100949.81;5014612;28;20022;-64
2021/03/30 10:31:07;;;;;;;39.58;6.82;;;;;;;22.93;30.74;100944.66;5015248;28;20040;-64
2021/03/30 10:33:45;;;;;;;26.95;7.03;;;;;;;22.23;32.58;100936.56;5016032;28;20061;-64
2021/03/30 10:36:14;;;;;;;27.40;7.82;;;;;;;22.70;31.34;100937.19;5015764;28;20378;-64
2021/03/30 10:39:01;;;;;;;28.63;7.40;;;;;;;23.30;31.20;100935.16;5015918;28;20034;-64
2021/03/30 10:41:37;;;;;;;27.30;7.32;;;;;;;23.09;31.73;100933.66;5013826;28;20041;-63
2021/03/30 10:44:03;;;;;;;36.03;7.15;;;;;;;22.34;33.41;100929.13;5015706;28;20026;-63
2021/03/30 10:46:29;;;;;;;45.25;7.40;;;;;;;23.35;31.53;100924.16;5013758;28;20030;-63
2021/03/30 10:49:05;;;;;;;40.42;7.50;;;;;;;23.41;31.66;100923.03;5015349;28;20105;-63
2021/03/30 10:51:37;;;;;;;34.83;7.65;;;;;;;23.93;30.14;100922.53;5013796;28;20557;-63
2021/03/30 10:54:03;;;;;;;32.80;7.20;;;;;;;23.41;31.44;100917.56;5014317;28;20362;-63
2021/03/30 10:56:29;;;;;;;31.63;7.57;;;;;;;23.34;30.87;100906.13;5014802;28;20462;-63
2021/03/30 10:58:54;;;;;;;29.80;7.38;;;;;;;23.09;32.32;100919.97;5015625;28;20050;-63
2021/03/30 11:01:20;;;;;;;44.15;7.32;;;;;;;23.15;31.71;100903.25;5014938;28;20083;-63
2021/03/30 11:03:46;;;;;;;29.48;7.53;;;;;;;23.16;31.19;100902.16;5015029;28;20468;-63
2021/03/30 11:06:11;;;;;;;34.20;7.35;;;;;;;22.98;31.25;100909.13;5013178;28;20100;-63
2021/03/30 11:08:36;;;;;;;38.08;7.20;;;;;;;23.32;31.22;100902.84;5013587;28;20404;-63
2021/03/30 11:11:02;;;;;;;27.95;6.65;;;;;;;23.05;31.85;100900.59;5014663;28;20460;-64
2021/03/30 11:13:27;;;;;;;26.60;6.90;;;;;;;22.98;31.83;100894.63;5014961;28;20049;-64
2021/03/30 11:15:53;;;;;;;22.70;7.00;;;;;;;23.57;30.21;100898.25;5014296;28;20485;-63
2021/03/30 11:18:18;;;;;;;30.10;7.13;;;;;;;23.07;31.16;100890.22;5014782;28;20022;-63
2021/03/30 11:20:44;;;;;;;25.73;6.70;;;;;;;22.82;31.04;100888.44;5012970;28;20049;-63
2021/03/30 11:23:09;;;;;;;21.83;6.57;;;;;;;22.47;32.05;100887.56;5014572;28;20473;-63
2021/03/30 11:25:37;;;;;;;31.70;7.18;;;;;;;22.72;31.20;100883.88;5014052;28;20092;-64
2021/03/30 11:28:06;;;;;;;25.42;6.45;;;;;;;22.75;30.90;100882.47;5013357;28;20026;-64
2021/03/30 11:31:24;;;;;;;22.17;6.33;;;;;;;22.97;30.99;100876.59;5014157;28;20377;-64
2021/03/30 11:33:23;;;;;;;15.45;6.68;;;;;;;22.58;29.52;100872.72;5006348;28;20448;-64
2021/03/30 11:38:14;;;;;;;25.38;6.55;;;;;;;22.52;29.71;100868.41;5013142;28;20018;-63
2021/03/30 11:40:40;;;;;;;26.38;7.20;;;;;;;22.57;29.43;100862.09;5014001;28;20029;-64